sensor_id;sensor_type;location;lat;lon;timestamp;P1;durP1;ratioP1;P2;durP2;ratioP2
7338;SDS011;33747;49.524;8.390;2023-04-29T00:01:29;7.40;;;4.32;;
7338;SDS011;33747;49.524;8.390;2023-04-29T00:03:55;7.50;;;3.97;;
7338;SDS011;33747;49.524;8.390;2023-04-29T00:06:20;4.75;;;4.18;;
7338;SDS011;33747;49.524;8.390;2023-04-29T00:08:46;4.50;;;3.92;;
7338;SDS011;33747;49.524;8.390;2023-04-29T00:11:11;7.70;;;4.28;;
7338;SDS011;33747;49.524;8.390;2023-04-29T00:13:37;7.28;;;4.20;;
7338;SDS011;33747;49.524;8.390;2023-04-29T00:16:04;5.60;;;3.95;;
7338;SDS011;33747;49.524;8.390;2023-04-29T00:18:30;7.97;;;3.90;;
7338;SDS011;33747;49.524;8.390;2023-04-29T00:20:56;7.00;;;4.53;;
7338;SDS011;33747;49.524;8.390;2023-04-29T00:23:21;5.53;;;4.05;;
7338;SDS011;33747;49.524;8.390;2023-04-29T00:25:47;9.77;;;3.70;;
7338;SDS011;33747;49.524;8.390;2023-04-29T00:28:12;4.40;;;3.78;;
7338;SDS011;33747;49.524;8.390;2023-04-29T00:30:37;5.50;;;4.55;;
7338;SDS011;33747;49.524;8.390;2023-04-29T00:33:03;6.75;;;4.32;;
7338;SDS011;33747;49.524;8.390;2023-04-29T00:35:28;4.60;;;3.80;;
7338;SDS011;33747;49.524;8.390;2023-04-29T00:37:53;10.52;;;4.35;;
7338;SDS011;33747;49.524;8.390;2023-04-29T00:40:19;8.38;;;4.32;;
7338;SDS011;33747;49.524;8.390;2023-04-29T00:42:44;7.07;;;4.20;;
7338;SDS011;33747;49.524;8.390;2023-04-29T00:45:10;5.85;;;4.57;;
7338;SDS011;33747;49.524;8.390;2023-04-29T00:47:36;5.18;;;4.07;;
7338;SDS011;33747;49.524;8.390;2023-04-29T00:50:01;11.23;;;4.82;;
7338;SDS011;33747;49.524;8.390;2023-04-29T00:52:28;7.10;;;4.43;;
7338;SDS011;33747;49.524;8.390;2023-04-29T00:54:55;10.57;;;4.65;;
7338;SDS011;33747;49.524;8.390;2023-04-29T00:57:21;6.75;;;4.50;;
7338;SDS011;33747;49.524;8.390;2023-04-29T00:59:46;8.13;;;4.47;;
7338;SDS011;33747;49.524;8.390;2023-04-29T01:02:13;7.47;;;5.07;;
7338;SDS011;33747;49.524;8.390;2023-04-29T01:04:38;4.90;;;4.45;;
7338;SDS011;33747;49.524;8.390;2023-04-29T01:07:13;6.07;;;4.38;;
7338;SDS011;33747;49.524;8.390;2023-04-29T01:15:20;6.75;;;4.20;;
7338;SDS011;33747;49.524;8.390;2023-04-29T01:17:54;7.65;;;4.28;;
7338;SDS011;33747;49.524;8.390;2023-04-29T01:20:31;5.30;;;3.67;;
7338;SDS011;33747;49.524;8.390;2023-04-29T01:22:57;7.47;;;4.80;;
7338;SDS011;33747;49.524;8.390;2023-04-29T01:25:22;10.70;;;5.07;;
7338;SDS011;33747;49.524;8.390;2023-04-29T01:31:07;4.97;;;4.32;;
7338;SDS011;33747;49.524;8.390;2023-04-29T01:33:41;5.70;;;4.40;;
7338;SDS011;33747;49.524;8.390;2023-04-29T01:36:24;6.03;;;4.43;;
7338;SDS011;33747;49.524;8.390;2023-04-29T01:41:50;5.80;;;4.38;;
7338;SDS011;33747;49.524;8.390;2023-04-29T01:44:19;5.47;;;4.30;;
7338;SDS011;33747;49.524;8.390;2023-04-29T01:46:50;5.53;;;4.18;;
7338;SDS011;33747;49.524;8.390;2023-04-29T01:49:23;4.57;;;4.13;;
7338;SDS011;33747;49.524;8.390;2023-04-29T01:51:49;3.90;;;3.53;;
7338;SDS011;33747;49.524;8.390;2023-04-29T01:54:14;6.13;;;3.72;;
7338;SDS011;33747;49.524;8.390;2023-04-29T01:56:40;6.00;;;3.40;;
7338;SDS011;33747;49.524;8.390;2023-04-29T01:59:05;4.00;;;3.20;;
7338;SDS011;33747;49.524;8.390;2023-04-29T02:01:32;3.80;;;3.35;;
7338;SDS011;33747;49.524;8.390;2023-04-29T02:03:57;4.22;;;3.35;;
7338;SDS011;33747;49.524;8.390;2023-04-29T02:06:23;4.43;;;3.17;;
7338;SDS011;33747;49.524;8.390;2023-04-29T02:08:48;3.70;;;3.40;;
7338;SDS011;33747;49.524;8.390;2023-04-29T02:11:14;3.35;;;3.13;;
7338;SDS011;33747;49.524;8.390;2023-04-29T02:13:40;5.43;;;3.30;;
7338;SDS011;33747;49.524;8.390;2023-04-29T02:16:06;5.53;;;3.25;;
7338;SDS011;33747;49.524;8.390;2023-04-29T02:18:32;3.42;;;3.13;;
7338;SDS011;33747;49.524;8.390;2023-04-29T02:21:01;3.70;;;3.00;;
7338;SDS011;33747;49.524;8.390;2023-04-29T02:23:26;9.25;;;3.15;;
7338;SDS011;33747;49.524;8.390;2023-04-29T02:25:52;5.28;;;2.90;;
7338;SDS011;33747;49.524;8.390;2023-04-29T02:28:17;6.47;;;2.80;;
7338;SDS011;33747;49.524;8.390;2023-04-29T02:30:43;3.60;;;2.88;;
7338;SDS011;33747;49.524;8.390;2023-04-29T02:33:08;4.47;;;3.03;;
7338;SDS011;33747;49.524;8.390;2023-04-29T02:38:21;5.15;;;3.13;;
7338;SDS011;33747;49.524;8.390;2023-04-29T02:40:46;5.43;;;3.13;;
7338;SDS011;33747;49.524;8.390;2023-04-29T02:43:12;3.15;;;2.80;;
7338;SDS011;33747;49.524;8.390;2023-04-29T02:45:37;7.53;;;2.42;;
7338;SDS011;33747;49.524;8.390;2023-04-29T02:48:03;9.20;;;2.50;;
7338;SDS011;33747;49.524;8.390;2023-04-29T02:50:29;4.32;;;2.40;;
7338;SDS011;33747;49.524;8.390;2023-04-29T02:52:54;2.40;;;1.65;;
7338;SDS011;33747;49.524;8.390;2023-04-29T02:55:20;2.50;;;1.80;;
7338;SDS011;33747;49.524;8.390;2023-04-29T02:57:45;3.10;;;1.80;;
7338;SDS011;33747;49.524;8.390;2023-04-29T03:00:11;5.68;;;1.75;;
7338;SDS011;33747;49.524;8.390;2023-04-29T03:02:36;1.60;;;1.50;;
7338;SDS011;33747;49.524;8.390;2023-04-29T03:05:02;4.05;;;1.58;;
7338;SDS011;33747;49.524;8.390;2023-04-29T03:07:28;3.70;;;1.25;;
7338;SDS011;33747;49.524;8.390;2023-04-29T03:09:54;2.85;;;1.88;;
7338;SDS011;33747;49.524;8.390;2023-04-29T03:12:20;1.40;;;1.30;;
7338;SDS011;33747;49.524;8.390;2023-04-29T03:14:45;2.28;;;1.73;;
7338;SDS011;33747;49.524;8.390;2023-04-29T03:17:11;3.83;;;1.42;;
7338;SDS011;33747;49.524;8.390;2023-04-29T03:19:36;3.55;;;1.50;;
7338;SDS011;33747;49.524;8.390;2023-04-29T03:22:02;1.52;;;1.42;;
7338;SDS011;33747;49.524;8.390;2023-04-29T03:24:27;4.85;;;1.40;;
7338;SDS011;33747;49.524;8.390;2023-04-29T03:26:52;1.88;;;1.60;;
7338;SDS011;33747;49.524;8.390;2023-04-29T03:29:18;3.08;;;1.52;;
7338;SDS011;33747;49.524;8.390;2023-04-29T03:31:44;1.65;;;1.55;;
7338;SDS011;33747;49.524;8.390;2023-04-29T03:34:09;2.35;;;1.30;;
7338;SDS011;33747;49.524;8.390;2023-04-29T03:36:35;2.08;;;1.40;;
7338;SDS011;33747;49.524;8.390;2023-04-29T03:39:00;2.53;;;1.30;;
7338;SDS011;33747;49.524;8.390;2023-04-29T03:41:26;1.67;;;1.58;;
7338;SDS011;33747;49.524;8.390;2023-04-29T03:43:51;1.73;;;1.63;;
7338;SDS011;33747;49.524;8.390;2023-04-29T03:46:18;2.10;;;1.58;;
7338;SDS011;33747;49.524;8.390;2023-04-29T03:48:44;4.32;;;1.63;;
7338;SDS011;33747;49.524;8.390;2023-04-29T03:51:09;1.40;;;1.30;;
7338;SDS011;33747;49.524;8.390;2023-04-29T03:53:35;4.68;;;1.83;;
7338;SDS011;33747;49.524;8.390;2023-04-29T03:56:01;5.60;;;1.70;;
7338;SDS011;33747;49.524;8.390;2023-04-29T03:58:27;1.80;;;1.50;;
7338;SDS011;33747;49.524;8.390;2023-04-29T04:00:52;3.90;;;1.67;;
7338;SDS011;33747;49.524;8.390;2023-04-29T04:03:18;2.72;;;1.80;;
7338;SDS011;33747;49.524;8.390;2023-04-29T04:05:43;5.13;;;1.48;;
7338;SDS011;33747;49.524;8.390;2023-04-29T04:08:08;3.10;;;1.65;;
7338;SDS011;33747;49.524;8.390;2023-04-29T04:10:35;1.85;;;1.38;;
7338;SDS011;33747;49.524;8.390;2023-04-29T04:13:00;2.47;;;1.55;;
7338;SDS011;33747;49.524;8.390;2023-04-29T04:15:26;2.67;;;1.83;;
7338;SDS011;33747;49.524;8.390;2023-04-29T04:17:51;2.22;;;1.95;;
7338;SDS011;33747;49.524;8.390;2023-04-29T04:20:17;4.80;;;1.88;;
7338;SDS011;33747;49.524;8.390;2023-04-29T04:22:42;6.28;;;2.10;;
7338;SDS011;33747;49.524;8.390;2023-04-29T04:25:08;2.55;;;1.60;;
7338;SDS011;33747;49.524;8.390;2023-04-29T04:27:33;3.90;;;1.75;;
7338;SDS011;33747;49.524;8.390;2023-04-29T04:29:59;4.00;;;1.40;;
7338;SDS011;33747;49.524;8.390;2023-04-29T04:32:25;5.72;;;1.67;;
7338;SDS011;33747;49.524;8.390;2023-04-29T04:34:50;2.47;;;1.70;;
7338;SDS011;33747;49.524;8.390;2023-04-29T04:37:16;1.80;;;1.52;;
7338;SDS011;33747;49.524;8.390;2023-04-29T04:39:41;6.90;;;2.25;;
7338;SDS011;33747;49.524;8.390;2023-04-29T04:42:07;2.92;;;1.85;;
7338;SDS011;33747;49.524;8.390;2023-04-29T04:44:32;3.72;;;1.67;;
7338;SDS011;33747;49.524;8.390;2023-04-29T04:46:58;3.55;;;1.85;;
7338;SDS011;33747;49.524;8.390;2023-04-29T04:49:25;2.83;;;1.80;;
7338;SDS011;33747;49.524;8.390;2023-04-29T04:51:51;4.25;;;2.03;;
7338;SDS011;33747;49.524;8.390;2023-04-29T04:54:16;2.85;;;2.08;;
7338;SDS011;33747;49.524;8.390;2023-04-29T04:56:42;4.28;;;1.92;;
7338;SDS011;33747;49.524;8.390;2023-04-29T04:59:07;3.78;;;2.33;;
7338;SDS011;33747;49.524;8.390;2023-04-29T05:01:33;3.17;;;2.13;;
7338;SDS011;33747;49.524;8.390;2023-04-29T05:03:58;2.80;;;1.80;;
7338;SDS011;33747;49.524;8.390;2023-04-29T05:06:24;3.15;;;2.28;;
7338;SDS011;33747;49.524;8.390;2023-04-29T05:08:50;2.05;;;1.83;;
7338;SDS011;33747;49.524;8.390;2023-04-29T05:11:19;4.22;;;1.80;;
7338;SDS011;33747;49.524;8.390;2023-04-29T05:13:45;10.35;;;2.42;;
7338;SDS011;33747;49.524;8.390;2023-04-29T05:16:11;6.63;;;2.13;;
7338;SDS011;33747;49.524;8.390;2023-04-29T05:18:36;4.30;;;1.70;;
7338;SDS011;33747;49.524;8.390;2023-04-29T05:21:02;4.65;;;1.90;;
7338;SDS011;33747;49.524;8.390;2023-04-29T05:23:27;2.60;;;1.88;;
7338;SDS011;33747;49.524;8.390;2023-04-29T05:25:53;4.07;;;1.85;;
7338;SDS011;33747;49.524;8.390;2023-04-29T05:28:18;1.65;;;1.48;;
7338;SDS011;33747;49.524;8.390;2023-04-29T05:30:44;2.08;;;1.80;;
7338;SDS011;33747;49.524;8.390;2023-04-29T05:33:09;3.58;;;1.70;;
7338;SDS011;33747;49.524;8.390;2023-04-29T05:35:35;2.80;;;1.58;;
7338;SDS011;33747;49.524;8.390;2023-04-29T05:38:01;4.32;;;2.20;;
7338;SDS011;33747;49.524;8.390;2023-04-29T05:40:26;1.73;;;1.63;;
7338;SDS011;33747;49.524;8.390;2023-04-29T05:42:52;1.60;;;1.50;;
7338;SDS011;33747;49.524;8.390;2023-04-29T05:45:17;3.22;;;2.03;;
7338;SDS011;33747;49.524;8.390;2023-04-29T05:47:43;2.88;;;1.88;;
7338;SDS011;33747;49.524;8.390;2023-04-29T05:50:08;2.28;;;2.00;;
7338;SDS011;33747;49.524;8.390;2023-04-29T05:52:33;3.58;;;2.08;;
7338;SDS011;33747;49.524;8.390;2023-04-29T05:54:59;12.70;;;3.08;;
7338;SDS011;33747;49.524;8.390;2023-04-29T05:57:24;4.82;;;2.70;;
7338;SDS011;33747;49.524;8.390;2023-04-29T05:59:50;4.97;;;2.78;;
7338;SDS011;33747;49.524;8.390;2023-04-29T06:02:15;3.00;;;2.30;;
7338;SDS011;33747;49.524;8.390;2023-04-29T06:04:40;7.85;;;3.47;;
7338;SDS011;33747;49.524;8.390;2023-04-29T06:07:06;4.18;;;2.40;;
7338;SDS011;33747;49.524;8.390;2023-04-29T06:09:34;2.58;;;2.13;;
7338;SDS011;33747;49.524;8.390;2023-04-29T06:12:00;4.57;;;2.08;;
7338;SDS011;33747;49.524;8.390;2023-04-29T06:14:25;4.40;;;2.50;;
7338;SDS011;33747;49.524;8.390;2023-04-29T06:16:50;2.97;;;2.65;;
7338;SDS011;33747;49.524;8.390;2023-04-29T06:19:16;8.88;;;3.90;;
7338;SDS011;33747;49.524;8.390;2023-04-29T06:21:41;5.15;;;3.72;;
7338;SDS011;33747;49.524;8.390;2023-04-29T06:24:06;3.63;;;2.92;;
7338;SDS011;33747;49.524;8.390;2023-04-29T06:26:32;4.35;;;2.65;;
7338;SDS011;33747;49.524;8.390;2023-04-29T06:28:57;5.57;;;2.65;;
7338;SDS011;33747;49.524;8.390;2023-04-29T06:31:23;5.40;;;2.22;;
7338;SDS011;33747;49.524;8.390;2023-04-29T06:33:48;4.35;;;1.90;;
7338;SDS011;33747;49.524;8.390;2023-04-29T06:36:14;2.72;;;1.98;;
7338;SDS011;33747;49.524;8.390;2023-04-29T06:38:39;3.40;;;2.00;;
7338;SDS011;33747;49.524;8.390;2023-04-29T06:41:04;6.90;;;2.50;;
7338;SDS011;33747;49.524;8.390;2023-04-29T06:43:30;2.35;;;2.15;;
7338;SDS011;33747;49.524;8.390;2023-04-29T06:45:55;4.10;;;3.80;;
7338;SDS011;33747;49.524;8.390;2023-04-29T06:48:21;3.75;;;3.33;;
7338;SDS011;33747;49.524;8.390;2023-04-29T06:50:51;2.47;;;2.28;;
7338;SDS011;33747;49.524;8.390;2023-04-29T06:53:18;4.18;;;3.80;;
7338;SDS011;33747;49.524;8.390;2023-04-29T06:55:43;5.88;;;5.35;;
7338;SDS011;33747;49.524;8.390;2023-04-29T06:58:10;8.10;;;5.70;;
7338;SDS011;33747;49.524;8.390;2023-04-29T07:00:38;8.27;;;6.20;;
7338;SDS011;33747;49.524;8.390;2023-04-29T07:03:04;10.57;;;6.50;;
7338;SDS011;33747;49.524;8.390;2023-04-29T07:05:29;8.07;;;7.00;;
7338;SDS011;33747;49.524;8.390;2023-04-29T07:07:54;13.23;;;7.63;;
7338;SDS011;33747;49.524;8.390;2023-04-29T07:10:20;8.52;;;7.70;;
7338;SDS011;33747;49.524;8.390;2023-04-29T07:12:45;10.48;;;8.52;;
7338;SDS011;33747;49.524;8.390;2023-04-29T07:15:11;9.95;;;8.50;;
7338;SDS011;33747;49.524;8.390;2023-04-29T07:17:36;14.30;;;8.68;;
7338;SDS011;33747;49.524;8.390;2023-04-29T07:20:02;10.85;;;8.60;;
7338;SDS011;33747;49.524;8.390;2023-04-29T07:22:28;11.00;;;8.75;;
7338;SDS011;33747;49.524;8.390;2023-04-29T07:24:53;12.85;;;8.95;;
7338;SDS011;33747;49.524;8.390;2023-04-29T07:28:02;12.73;;;9.05;;
7338;SDS011;33747;49.524;8.390;2023-04-29T07:30:28;13.68;;;9.30;;
7338;SDS011;33747;49.524;8.390;2023-04-29T07:32:53;11.07;;;8.77;;
7338;SDS011;33747;49.524;8.390;2023-04-29T07:35:19;14.20;;;9.05;;
7338;SDS011;33747;49.524;8.390;2023-04-29T07:37:44;16.42;;;9.73;;
7338;SDS011;33747;49.524;8.390;2023-04-29T07:40:10;10.93;;;8.85;;
7338;SDS011;33747;49.524;8.390;2023-04-29T07:42:35;15.27;;;9.32;;
7338;SDS011;33747;49.524;8.390;2023-04-29T07:45:01;13.38;;;9.30;;
7338;SDS011;33747;49.524;8.390;2023-04-29T07:47:26;15.25;;;9.68;;
7338;SDS011;33747;49.524;8.390;2023-04-29T07:49:52;10.52;;;8.63;;
7338;SDS011;33747;49.524;8.390;2023-04-29T07:52:18;15.50;;;9.07;;
7338;SDS011;33747;49.524;8.390;2023-04-29T07:54:43;13.13;;;9.30;;
7338;SDS011;33747;49.524;8.390;2023-04-29T07:57:08;12.50;;;8.95;;
7338;SDS011;33747;49.524;8.390;2023-04-29T07:59:34;9.98;;;8.20;;
7338;SDS011;33747;49.524;8.390;2023-04-29T08:01:59;12.70;;;8.30;;
7338;SDS011;33747;49.524;8.390;2023-04-29T08:04:25;12.63;;;8.35;;
7338;SDS011;33747;49.524;8.390;2023-04-29T08:06:50;10.02;;;7.80;;
7338;SDS011;33747;49.524;8.390;2023-04-29T08:09:16;10.07;;;8.43;;
7338;SDS011;33747;49.524;8.390;2023-04-29T08:11:41;10.55;;;7.97;;
7338;SDS011;33747;49.524;8.390;2023-04-29T08:14:07;10.32;;;6.22;;
7338;SDS011;33747;49.524;8.390;2023-04-29T08:16:32;7.53;;;6.30;;
7338;SDS011;33747;49.524;8.390;2023-04-29T08:18:58;9.73;;;6.65;;
7338;SDS011;33747;49.524;8.390;2023-04-29T08:21:23;6.22;;;5.15;;
7338;SDS011;33747;49.524;8.390;2023-04-29T08:23:49;8.20;;;5.85;;
7338;SDS011;33747;49.524;8.390;2023-04-29T08:26:14;7.07;;;5.72;;
7338;SDS011;33747;49.524;8.390;2023-04-29T08:28:40;8.50;;;6.07;;
7338;SDS011;33747;49.524;8.390;2023-04-29T08:31:05;6.57;;;5.88;;
7338;SDS011;33747;49.524;8.390;2023-04-29T08:33:34;5.88;;;5.22;;
7338;SDS011;33747;49.524;8.390;2023-04-29T08:36:00;6.53;;;5.45;;
7338;SDS011;33747;49.524;8.390;2023-04-29T08:38:27;7.07;;;6.03;;
7338;SDS011;33747;49.524;8.390;2023-04-29T08:40:53;8.30;;;6.00;;
7338;SDS011;33747;49.524;8.390;2023-04-29T08:43:18;6.97;;;6.00;;
7338;SDS011;33747;49.524;8.390;2023-04-29T08:45:44;10.60;;;6.10;;
7338;SDS011;33747;49.524;8.390;2023-04-29T08:48:12;6.80;;;5.10;;
7338;SDS011;33747;49.524;8.390;2023-04-29T08:50:38;8.73;;;6.50;;
7338;SDS011;33747;49.524;8.390;2023-04-29T08:53:11;6.90;;;6.15;;
7338;SDS011;33747;49.524;8.390;2023-04-29T08:58:06;8.77;;;5.72;;
7338;SDS011;33747;49.524;8.390;2023-04-29T09:00:33;6.50;;;4.97;;
7338;SDS011;33747;49.524;8.390;2023-04-29T09:02:59;6.68;;;5.57;;
7338;SDS011;33747;49.524;8.390;2023-04-29T09:05:25;6.30;;;4.95;;
7338;SDS011;33747;49.524;8.390;2023-04-29T09:07:51;5.47;;;4.53;;
7338;SDS011;33747;49.524;8.390;2023-04-29T09:10:17;4.45;;;4.05;;
7338;SDS011;33747;49.524;8.390;2023-04-29T09:12:42;8.20;;;4.22;;
7338;SDS011;33747;49.524;8.390;2023-04-29T09:15:08;4.68;;;3.72;;
7338;SDS011;33747;49.524;8.390;2023-04-29T09:17:47;4.93;;;4.15;;
7338;SDS011;33747;49.524;8.390;2023-04-29T09:22:50;4.47;;;3.95;;
7338;SDS011;33747;49.524;8.390;2023-04-29T09:25:16;6.00;;;4.18;;
7338;SDS011;33747;49.524;8.390;2023-04-29T09:27:42;5.40;;;4.28;;
7338;SDS011;33747;49.524;8.390;2023-04-29T09:30:08;4.78;;;4.18;;
7338;SDS011;33747;49.524;8.390;2023-04-29T09:32:34;8.85;;;4.88;;
7338;SDS011;33747;49.524;8.390;2023-04-29T09:37:48;6.70;;;4.88;;
7338;SDS011;33747;49.524;8.390;2023-04-29T09:40:30;6.45;;;4.85;;
7338;SDS011;33747;49.524;8.390;2023-04-29T09:42:56;6.03;;;5.18;;
7338;SDS011;33747;49.524;8.390;2023-04-29T09:45:32;5.57;;;4.95;;
7338;SDS011;33747;49.524;8.390;2023-04-29T09:48:01;6.55;;;4.63;;
7338;SDS011;33747;49.524;8.390;2023-04-29T09:50:27;5.03;;;4.60;;
7338;SDS011;33747;49.524;8.390;2023-04-29T09:52:53;5.28;;;4.75;;
7338;SDS011;33747;49.524;8.390;2023-04-29T09:55:18;5.60;;;4.80;;
7338;SDS011;33747;49.524;8.390;2023-04-29T09:57:44;5.13;;;4.55;;
7338;SDS011;33747;49.524;8.390;2023-04-29T10:00:10;8.10;;;5.15;;
7338;SDS011;33747;49.524;8.390;2023-04-29T10:02:37;5.00;;;4.53;;
7338;SDS011;33747;49.524;8.390;2023-04-29T10:05:06;6.03;;;4.68;;
7338;SDS011;33747;49.524;8.390;2023-04-29T10:07:31;5.32;;;4.82;;
7338;SDS011;33747;49.524;8.390;2023-04-29T10:09:57;6.22;;;5.00;;
7338;SDS011;33747;49.524;8.390;2023-04-29T10:12:22;7.07;;;5.40;;
7338;SDS011;33747;49.524;8.390;2023-04-29T10:17:17;7.97;;;5.85;;
7338;SDS011;33747;49.524;8.390;2023-04-29T10:20:00;5.28;;;4.68;;
7338;SDS011;33747;49.524;8.390;2023-04-29T10:22:34;7.15;;;5.00;;
7338;SDS011;33747;49.524;8.390;2023-04-29T10:25:11;4.85;;;4.25;;
7338;SDS011;33747;49.524;8.390;2023-04-29T10:27:38;4.80;;;4.28;;
7338;SDS011;33747;49.524;8.390;2023-04-29T10:30:05;6.25;;;4.07;;
7338;SDS011;33747;49.524;8.390;2023-04-29T10:32:31;5.38;;;4.88;;
7338;SDS011;33747;49.524;8.390;2023-04-29T10:34:59;7.57;;;4.55;;
7338;SDS011;33747;49.524;8.390;2023-04-29T10:37:24;7.45;;;5.00;;
7338;SDS011;33747;49.524;8.390;2023-04-29T10:43:00;3.50;;;3.20;;
7338;SDS011;33747;49.524;8.390;2023-04-29T10:45:30;3.85;;;3.42;;
7338;SDS011;33747;49.524;8.390;2023-04-29T10:50:31;2.70;;;2.50;;
7338;SDS011;33747;49.524;8.390;2023-04-29T10:53:00;3.45;;;3.15;;
7338;SDS011;33747;49.524;8.390;2023-04-29T10:55:26;4.35;;;3.10;;
7338;SDS011;33747;49.524;8.390;2023-04-29T10:57:51;3.90;;;3.60;;
7338;SDS011;33747;49.524;8.390;2023-04-29T11:00:21;4.50;;;3.67;;
7338;SDS011;33747;49.524;8.390;2023-04-29T11:02:47;3.90;;;3.60;;
7338;SDS011;33747;49.524;8.390;2023-04-29T11:05:13;4.18;;;3.78;;
7338;SDS011;33747;49.524;8.390;2023-04-29T11:07:38;3.85;;;3.45;;
7338;SDS011;33747;49.524;8.390;2023-04-29T11:10:04;4.30;;;3.90;;
7338;SDS011;33747;49.524;8.390;2023-04-29T11:12:31;3.95;;;3.58;;
7338;SDS011;33747;49.524;8.390;2023-04-29T11:14:56;7.13;;;3.47;;
7338;SDS011;33747;49.524;8.390;2023-04-29T11:17:27;5.20;;;3.58;;
7338;SDS011;33747;49.524;8.390;2023-04-29T11:20:00;5.57;;;3.80;;
7338;SDS011;33747;49.524;8.390;2023-04-29T11:22:26;4.60;;;4.18;;
7338;SDS011;33747;49.524;8.390;2023-04-29T11:24:55;4.70;;;4.30;;
7338;SDS011;33747;49.524;8.390;2023-04-29T11:27:24;6.05;;;4.00;;
7338;SDS011;33747;49.524;8.390;2023-04-29T11:29:54;3.85;;;3.40;;
7338;SDS011;33747;49.524;8.390;2023-04-29T11:32:23;4.68;;;3.70;;
7338;SDS011;33747;49.524;8.390;2023-04-29T11:34:50;3.65;;;3.35;;
7338;SDS011;33747;49.524;8.390;2023-04-29T11:37:19;7.30;;;4.00;;
7338;SDS011;33747;49.524;8.390;2023-04-29T11:39:49;4.10;;;3.55;;
7338;SDS011;33747;49.524;8.390;2023-04-29T11:42:18;5.03;;;4.53;;
7338;SDS011;33747;49.524;8.390;2023-04-29T11:44:44;6.00;;;3.22;;
7338;SDS011;33747;49.524;8.390;2023-04-29T11:47:09;3.35;;;3.03;;
7338;SDS011;33747;49.524;8.390;2023-04-29T11:49:35;6.00;;;2.72;;
7338;SDS011;33747;49.524;8.390;2023-04-29T11:52:01;3.10;;;2.85;;
7338;SDS011;33747;49.524;8.390;2023-04-29T11:54:28;2.60;;;2.40;;
7338;SDS011;33747;49.524;8.390;2023-04-29T11:56:54;2.90;;;2.70;;
7338;SDS011;33747;49.524;8.390;2023-04-29T11:59:20;2.72;;;2.53;;
7338;SDS011;33747;49.524;8.390;2023-04-29T12:01:46;3.40;;;3.03;;
7338;SDS011;33747;49.524;8.390;2023-04-29T12:04:12;2.90;;;2.70;;
7338;SDS011;33747;49.524;8.390;2023-04-29T12:06:37;5.30;;;3.70;;
7338;SDS011;33747;49.524;8.390;2023-04-29T12:09:03;3.63;;;3.30;;
7338;SDS011;33747;49.524;8.390;2023-04-29T12:11:28;4.07;;;3.17;;
7338;SDS011;33747;49.524;8.390;2023-04-29T12:13:54;3.22;;;2.95;;
7338;SDS011;33747;49.524;8.390;2023-04-29T12:16:20;4.05;;;3.55;;
7338;SDS011;33747;49.524;8.390;2023-04-29T12:18:47;3.75;;;3.45;;
7338;SDS011;33747;49.524;8.390;2023-04-29T12:21:14;4.00;;;3.35;;
7338;SDS011;33747;49.524;8.390;2023-04-29T12:23:39;3.15;;;2.85;;
7338;SDS011;33747;49.524;8.390;2023-04-29T12:26:05;3.22;;;3.03;;
7338;SDS011;33747;49.524;8.390;2023-04-29T12:28:30;3.95;;;3.22;;
7338;SDS011;33747;49.524;8.390;2023-04-29T12:30:56;3.70;;;3.22;;
7338;SDS011;33747;49.524;8.390;2023-04-29T12:33:23;2.78;;;2.58;;
7338;SDS011;33747;49.524;8.390;2023-04-29T12:35:51;6.13;;;2.90;;
7338;SDS011;33747;49.524;8.390;2023-04-29T12:38:19;6.32;;;3.35;;
7338;SDS011;33747;49.524;8.390;2023-04-29T12:40:51;3.42;;;3.10;;
7338;SDS011;33747;49.524;8.390;2023-04-29T12:43:17;5.53;;;3.22;;
7338;SDS011;33747;49.524;8.390;2023-04-29T12:45:42;3.50;;;3.20;;
7338;SDS011;33747;49.524;8.390;2023-04-29T12:48:08;3.63;;;3.33;;
7338;SDS011;33747;49.524;8.390;2023-04-29T12:50:36;6.53;;;3.58;;
7338;SDS011;33747;49.524;8.390;2023-04-29T12:53:02;3.80;;;3.40;;
7338;SDS011;33747;49.524;8.390;2023-04-29T12:55:28;4.03;;;3.30;;
7338;SDS011;33747;49.524;8.390;2023-04-29T12:57:56;4.03;;;3.30;;
7338;SDS011;33747;49.524;8.390;2023-04-29T13:00:21;3.00;;;2.80;;
7338;SDS011;33747;49.524;8.390;2023-04-29T13:02:46;3.55;;;2.95;;
7338;SDS011;33747;49.524;8.390;2023-04-29T13:05:12;6.82;;;3.28;;
7338;SDS011;33747;49.524;8.390;2023-04-29T13:07:38;5.45;;;3.55;;
7338;SDS011;33747;49.524;8.390;2023-04-29T13:10:04;3.30;;;2.97;;
7338;SDS011;33747;49.524;8.390;2023-04-29T13:12:30;3.60;;;3.17;;
7338;SDS011;33747;49.524;8.390;2023-04-29T13:14:56;3.80;;;3.47;;
7338;SDS011;33747;49.524;8.390;2023-04-29T13:17:21;3.20;;;3.00;;
7338;SDS011;33747;49.524;8.390;2023-04-29T13:19:47;3.28;;;2.97;;
7338;SDS011;33747;49.524;8.390;2023-04-29T13:22:12;4.35;;;3.05;;
7338;SDS011;33747;49.524;8.390;2023-04-29T13:24:38;3.97;;;2.92;;
7338;SDS011;33747;49.524;8.390;2023-04-29T13:27:03;3.78;;;3.35;;
7338;SDS011;33747;49.524;8.390;2023-04-29T13:29:29;3.55;;;3.03;;
7338;SDS011;33747;49.524;8.390;2023-04-29T13:31:55;3.58;;;3.28;;
7338;SDS011;33747;49.524;8.390;2023-04-29T13:34:20;3.63;;;3.33;;
7338;SDS011;33747;49.524;8.390;2023-04-29T13:36:46;4.15;;;3.65;;
7338;SDS011;33747;49.524;8.390;2023-04-29T13:39:11;3.80;;;3.47;;
7338;SDS011;33747;49.524;8.390;2023-04-29T13:41:37;7.13;;;3.97;;
7338;SDS011;33747;49.524;8.390;2023-04-29T13:44:02;4.47;;;4.00;;
7338;SDS011;33747;49.524;8.390;2023-04-29T13:46:27;4.60;;;3.78;;
7338;SDS011;33747;49.524;8.390;2023-04-29T13:48:53;4.40;;;3.97;;
7338;SDS011;33747;49.524;8.390;2023-04-29T13:51:18;3.80;;;3.38;;
7338;SDS011;33747;49.524;8.390;2023-04-29T13:53:44;4.03;;;3.58;;
7338;SDS011;33747;49.524;8.390;2023-04-29T13:56:09;4.88;;;4.47;;
7338;SDS011;33747;49.524;8.390;2023-04-29T13:58:34;4.28;;;3.97;;
7338;SDS011;33747;49.524;8.390;2023-04-29T14:01:00;4.45;;;4.05;;
7338;SDS011;33747;49.524;8.390;2023-04-29T14:03:25;4.55;;;3.80;;
7338;SDS011;33747;49.524;8.390;2023-04-29T14:05:51;5.85;;;3.85;;
7338;SDS011;33747;49.524;8.390;2023-04-29T14:08:16;4.45;;;4.05;;
7338;SDS011;33747;49.524;8.390;2023-04-29T14:10:42;4.20;;;3.80;;
7338;SDS011;33747;49.524;8.390;2023-04-29T14:13:07;4.78;;;3.75;;
7338;SDS011;33747;49.524;8.390;2023-04-29T14:15:32;4.07;;;3.78;;
7338;SDS011;33747;49.524;8.390;2023-04-29T14:17:58;5.90;;;4.00;;
7338;SDS011;33747;49.524;8.390;2023-04-29T14:20:23;3.97;;;3.53;;
7338;SDS011;33747;49.524;8.390;2023-04-29T14:22:48;4.95;;;4.18;;
7338;SDS011;33747;49.524;8.390;2023-04-29T14:25:14;4.57;;;4.18;;
7338;SDS011;33747;49.524;8.390;2023-04-29T14:27:39;6.60;;;4.53;;
7338;SDS011;33747;49.524;8.390;2023-04-29T14:30:05;4.57;;;4.18;;
7338;SDS011;33747;49.524;8.390;2023-04-29T14:32:31;4.47;;;3.90;;
7338;SDS011;33747;49.524;8.390;2023-04-29T14:34:56;4.65;;;4.18;;
7338;SDS011;33747;49.524;8.390;2023-04-29T14:37:22;4.30;;;3.80;;
7338;SDS011;33747;49.524;8.390;2023-04-29T14:39:47;4.85;;;3.58;;
7338;SDS011;33747;49.524;8.390;2023-04-29T14:42:13;4.00;;;3.42;;
7338;SDS011;33747;49.524;8.390;2023-04-29T14:44:39;3.85;;;3.45;;
7338;SDS011;33747;49.524;8.390;2023-04-29T14:47:04;4.05;;;3.30;;
7338;SDS011;33747;49.524;8.390;2023-04-29T14:49:29;4.30;;;4.00;;
7338;SDS011;33747;49.524;8.390;2023-04-29T14:51:55;3.78;;;3.30;;
7338;SDS011;33747;49.524;8.390;2023-04-29T14:54:20;4.00;;;3.58;;
7338;SDS011;33747;49.524;8.390;2023-04-29T14:56:46;4.13;;;3.40;;
7338;SDS011;33747;49.524;8.390;2023-04-29T14:59:11;3.67;;;3.38;;
7338;SDS011;33747;49.524;8.390;2023-04-29T15:01:37;3.13;;;2.92;;
7338;SDS011;33747;49.524;8.390;2023-04-29T15:04:03;3.60;;;3.30;;
7338;SDS011;33747;49.524;8.390;2023-04-29T15:06:29;4.40;;;3.72;;
7338;SDS011;33747;49.524;8.390;2023-04-29T15:08:55;4.03;;;3.70;;
7338;SDS011;33747;49.524;8.390;2023-04-29T15:11:21;3.45;;;3.15;;
7338;SDS011;33747;49.524;8.390;2023-04-29T15:13:46;5.22;;;3.85;;
7338;SDS011;33747;49.524;8.390;2023-04-29T15:16:12;4.38;;;3.97;;
7338;SDS011;33747;49.524;8.390;2023-04-29T15:18:37;4.50;;;4.10;;
7338;SDS011;33747;49.524;8.390;2023-04-29T15:21:03;5.55;;;4.28;;
7338;SDS011;33747;49.524;8.390;2023-04-29T15:23:28;4.28;;;3.72;;
7338;SDS011;33747;49.524;8.390;2023-04-29T15:25:55;4.40;;;3.80;;